Time;durP1;ratioP1;P1;durP2;ratioP2;P2;SDS_P1;SDS_P2;PMS_P1;PMS_P2;Temp;Humidity;BMP_temperature;BMP_pressure;BME280_temperature;BME280_humidity;BME280_pressure;Samples;Min_cycle;Max_cycle;Signal;HPM_P1;HPM_P2
2022/04/23 00:02:23;;;;;;;4.37;3.97;;;;;;;;;;5016154;28;20657;-62
2022/04/23 00:04:50;;;;;;;3.70;3.37;;;;;;;;;;5009032;28;20222;-63
2022/04/23 00:07:17;;;;;;;4.10;3.77;;;;;;;;;;5007127;28;20200;-62
2022/04/23 00:09:44;;;;;;;4.33;3.93;;;;;;;;;;5009639;28;20295;-63
2022/04/23 00:12:11;;;;;;;3.87;3.57;;;;;;;;;;5007302;28;20680;-63
2022/04/23 00:14:39;;;;;;;4.10;3.70;;;;;;;;;;5008463;28;20735;-62
2022/04/23 00:17:06;;;;;;;3.90;3.60;;;;;;;;;;5009037;28;20278;-62
2022/04/23 00:19:35;;;;;;;4.10;3.70;;;;;;;;;;5007356;28;20680;-62
2022/04/23 00:22:03;;;;;;;4.10;3.77;;;;;;;;;;5009264;28;20211;-63
2022/04/23 00:24:30;;;;;;;3.77;3.47;;;;;;;;;;5006522;28;20231;-62
2022/04/23 00:26:57;;;;;;;4.50;4.10;;;;;;;;;;5036379;28;20196;-63
2022/04/23 00:29:24;;;;;;;3.83;3.53;;;;;;;;;;5006057;28;20250;-63
2022/04/23 00:31:51;;;;;;;3.70;3.40;;;;;;;;;;5009926;28;20629;-63
2022/04/23 00:34:18;;;;;;;3.50;3.27;;;;;;;;;;5008689;28;20398;-62
2022/04/23 00:36:45;;;;;;;4.00;3.50;;;;;;;;;;5007211;28;20282;-63
2022/04/23 00:39:12;;;;;;;3.77;3.47;;;;;;;;;;5006354;28;20250;-62
2022/04/23 00:41:52;;;;;;;3.63;3.33;;;;;;;;;;5009906;28;20227;-63
2022/04/23 00:44:19;;;;;;;4.50;4.13;;;;;;;;;;5009726;28;20191;-63
2022/04/23 00:46:46;;;;;;;3.73;3.43;;;;;;;;;;5009102;28;20200;-63
2022/04/23 00:49:13;;;;;;;4.10;3.70;;;;;;;;;;5005177;28;20953;-63
2022/04/23 00:51:41;;;;;;;3.63;3.33;;;;;;;;;;5009846;28;20240;-63
2022/04/23 00:54:09;;;;;;;3.73;3.33;;;;;;;;;;5009380;28;20192;-63
2022/04/23 00:56:37;;;;;;;3.70;3.40;;;;;;;;;;5007549;28;20211;-63
2022/04/23 00:59:11;;;;;;;3.47;3.20;;;;;;;;;;4999658;28;20681;-63
2022/04/23 01:01:43;;;;;;;3.47;3.17;;;;;;;;;;5007712;28;20596;-63
2022/04/23 01:04:12;;;;;;;3.70;3.40;;;;;;;;;;5008701;28;20238;-64
2022/04/23 01:06:40;;;;;;;4.40;4.00;;;;;;;;;;5009109;28;20210;-63
2022/04/23 01:09:08;;;;;;;4.27;3.33;;;;;;;;;;5008116;28;20191;-64
2022/04/23 01:11:38;;;;;;;3.50;3.20;;;;;;;;;;5004918;28;20223;-63
2022/04/23 01:14:05;;;;;;;3.83;3.53;;;;;;;;;;5009551;28;20203;-63
2022/04/23 01:16:33;;;;;;;3.80;3.50;;;;;;;;;;5008444;28;20200;-64
2022/04/23 01:19:00;;;;;;;3.60;3.30;;;;;;;;;;5007981;28;20188;-63
2022/04/23 01:21:27;;;;;;;3.40;3.10;;;;;;;;;;5005554;28;20211;-63
2022/04/23 01:23:57;;;;;;;3.67;3.37;;;;;;;;;;5005380;28;20607;-63
2022/04/23 01:26:28;;;;;;;4.27;3.97;;;;;;;;;;5008358;28;20207;-63
2022/04/23 01:28:57;;;;;;;3.50;3.20;;;;;;;;;;4998767;28;20215;-62
2022/04/23 01:31:25;;;;;;;3.80;3.50;;;;;;;;;;5004779;28;20254;-63
2022/04/23 01:33:52;;;;;;;3.70;3.40;;;;;;;;;;5007817;28;20188;-63
2022/04/23 01:36:20;;;;;;;3.63;3.33;;;;;;;;;;5005101;28;20227;-63
2022/04/23 01:38:47;;;;;;;3.73;3.43;;;;;;;;;;5038470;28;20855;-63
2022/04/23 01:41:14;;;;;;;4.07;3.67;;;;;;;;;;4999377;28;20196;-63
2022/04/23 01:43:42;;;;;;;3.50;3.20;;;;;;;;;;5006698;28;20198;-63
2022/04/23 01:46:09;;;;;;;3.50;3.20;;;;;;;;;;5006624;28;20199;-63
2022/04/23 01:48:36;;;;;;;3.87;3.57;;;;;;;;;;5004866;28;20246;-63
2022/04/23 01:51:03;;;;;;;3.87;3.50;;;;;;;;;;5007301;28;20266;-63
2022/04/23 01:53:30;;;;;;;3.30;3.10;;;;;;;;;;5003763;28;20246;-63
2022/04/23 01:55:58;;;;;;;3.47;3.17;;;;;;;;;;5007531;28;20268;-63
2022/04/23 01:58:25;;;;;;;3.67;3.37;;;;;;;;;;5004403;28;20195;-63
2022/04/23 02:00:53;;;;;;;3.80;3.50;;;;;;;;;;5004795;28;20270;-63
2022/04/23 02:03:22;;;;;;;3.80;3.50;;;;;;;;;;5004568;28;20238;-64
2022/04/23 02:05:50;;;;;;;3.87;3.57;;;;;;;;;;5007267;28;20640;-63
2022/04/23 02:08:18;;;;;;;3.37;2.93;;;;;;;;;;5008008;28;20207;-63
2022/04/23 02:10:47;;;;;;;3.17;2.97;;;;;;;;;;5006926;28;20547;-63
2022/04/23 02:13:14;;;;;;;3.47;3.17;;;;;;;;;;5001953;28;20295;-63
2022/04/23 02:15:41;;;;;;;4.53;3.63;;;;;;;;;;5007027;28;20184;-64
2022/04/23 02:18:09;;;;;;;3.47;3.27;;;;;;;;;;5007160;28;20259;-63
2022/04/23 02:20:36;;;;;;;4.00;3.70;;;;;;;;;;5006089;28;20200;-64
2022/04/23 02:23:04;;;;;;;3.83;3.53;;;;;;;;;;5004717;28;20219;-63
2022/04/23 02:25:34;;;;;;;4.07;3.33;;;;;;;;;;5001471;28;22301;-64
2022/04/23 02:28:01;;;;;;;3.90;3.60;;;;;;;;;;5006341;28;20258;-64
2022/04/23 02:30:28;;;;;;;3.63;3.33;;;;;;;;;;5006808;28;20203;-64
2022/04/23 02:32:56;;;;;;;4.07;3.77;;;;;;;;;;5005333;28;20214;-64
2022/04/23 02:35:23;;;;;;;3.70;3.40;;;;;;;;;;5001141;28;20602;-64
2022/04/23 02:37:53;;;;;;;3.80;3.50;;;;;;;;;;5005383;28;20202;-64
2022/04/23 02:40:20;;;;;;;3.90;3.60;;;;;;;;;;5006327;28;20214;-64
2022/04/23 02:42:48;;;;;;;3.57;3.27;;;;;;;;;;5005839;28;20261;-64
2022/04/23 02:45:15;;;;;;;3.73;3.43;;;;;;;;;;5002832;28;20191;-63
2022/04/23 02:47:43;;;;;;;3.87;3.50;;;;;;;;;;5001945;28;20196;-64
2022/04/23 02:50:10;;;;;;;4.17;3.87;;;;;;;;;;5005558;28;20196;-63
2022/04/23 02:52:38;;;;;;;4.00;3.70;;;;;;;;;;5005110;28;20277;-64
2022/04/23 02:55:05;;;;;;;4.63;4.10;;;;;;;;;;5002592;28;20196;-63
2022/04/23 02:57:33;;;;;;;3.43;3.13;;;;;;;;;;5004659;28;20214;-64
2022/04/23 03:00:00;;;;;;;3.70;3.40;;;;;;;;;;5004685;28;20361;-63
2022/04/23 03:02:28;;;;;;;4.37;3.97;;;;;;;;;;5006575;28;20587;-63
2022/04/23 03:04:55;;;;;;;4.63;4.23;;;;;;;;;;5007201;28;20226;-63
2022/04/23 03:07:22;;;;;;;4.43;4.03;;;;;;;;;;5015451;28;20222;-64
2022/04/23 03:09:50;;;;;;;5.23;4.07;;;;;;;;;;5007839;28;20219;-64
2022/04/23 03:12:17;;;;;;;3.67;3.37;;;;;;;;;;5004143;28;20795;-63
2022/04/23 03:14:45;;;;;;;4.00;3.70;;;;;;;;;;5006518;28;20297;-63
2022/04/23 03:17:12;;;;;;;5.90;3.83;;;;;;;;;;5006324;28;20207;-63
2022/04/23 03:19:41;;;;;;;4.13;3.83;;;;;;;;;;5005483;28;20261;-63
2022/04/23 03:22:08;;;;;;;4.77;3.80;;;;;;;;;;5006333;28;20219;-64
2022/04/23 03:24:36;;;;;;;4.30;4.00;;;;;;;;;;5004687;28;20641;-63
2022/04/23 03:27:06;;;;;;;4.07;3.77;;;;;;;;;;5010705;28;20196;-63
2022/04/23 03:29:33;;;;;;;4.83;4.43;;;;;;;;;;5007616;28;20195;-64
2022/04/23 03:32:00;;;;;;;4.07;3.77;;;;;;;;;;5010775;28;20618;-63
2022/04/23 03:34:27;;;;;;;4.00;3.70;;;;;;;;;;5009086;28;20630;-63
2022/04/23 03:36:55;;;;;;;4.13;3.73;;;;;;;;;;5007010;28;20289;-63
2022/04/23 03:39:22;;;;;;;3.93;3.63;;;;;;;;;;5008134;28;20214;-63
2022/04/23 03:41:49;;;;;;;4.10;3.73;;;;;;;;;;5010782;28;20231;-63
2022/04/23 03:44:19;;;;;;;4.43;4.03;;;;;;;;;;5010316;28;20207;-63
2022/04/23 03:46:49;;;;;;;4.87;4.47;;;;;;;;;;5009165;28;20207;-63
2022/04/23 03:49:26;;;;;;;4.53;3.90;;;;;;;;;;5005189;28;20209;-63
2022/04/23 03:51:57;;;;;;;4.83;4.30;;;;;;;;;;5009631;28;20312;-63
2022/04/23 03:54:27;;;;;;;4.70;4.27;;;;;;;;;;5008731;28;20266;-64
2022/04/23 03:56:58;;;;;;;4.07;3.77;;;;;;;;;;5007237;28;20210;-63
2022/04/23 03:59:30;;;;;;;4.30;3.90;;;;;;;;;;5004828;28;20270;-63
2022/04/23 04:02:04;;;;;;;4.50;4.10;;;;;;;;;;5009902;28;20231;-63
2022/04/23 04:04:36;;;;;;;4.80;4.40;;;;;;;;;;5007593;28;20622;-64
2022/04/23 04:07:05;;;;;;;4.70;4.10;;;;;;;;;;5007819;28;20192;-63
2022/04/23 04:09:36;;;;;;;5.43;4.93;;;;;;;;;;5009034;28;20212;-64
2022/04/23 04:12:08;;;;;;;4.70;4.30;;;;;;;;;;5006524;28;20270;-64
2022/04/23 04:14:38;;;;;;;4.53;4.13;;;;;;;;;;5009533;28;20210;-64
2022/04/23 04:17:14;;;;;;;4.60;4.20;;;;;;;;;;5019364;28;20192;-65
2022/04/23 04:19:43;;;;;;;4.00;3.67;;;;;;;;;;5008469;28;20200;-65
2022/04/23 04:22:13;;;;;;;4.17;3.87;;;;;;;;;;5015540;28;20273;-64
2022/04/23 04:24:46;;;;;;;4.87;4.40;;;;;;;;;;5006139;28;20681;-64
2022/04/23 04:27:15;;;;;;;4.73;4.33;;;;;;;;;;5016541;28;20543;-64
2022/04/23 04:29:45;;;;;;;4.80;4.40;;;;;;;;;;5009788;28;20275;-64
2022/04/23 04:32:13;;;;;;;4.90;4.50;;;;;;;;;;5000162;28;20265;-65
2022/04/23 04:34:40;;;;;;;5.70;4.47;;;;;;;;;;5009120;28;20257;-65
2022/04/23 04:37:11;;;;;;;4.87;4.37;;;;;;;;;;5005402;28;20219;-65
2022/04/23 04:39:42;;;;;;;4.37;4.07;;;;;;;;;;5008967;28;20251;-65
2022/04/23 04:42:10;;;;;;;4.40;4.10;;;;;;;;;;5007589;28;20782;-63
2022/04/23 04:44:37;;;;;;;5.23;4.43;;;;;;;;;;5009116;28;20632;-64
2022/04/23 04:47:09;;;;;;;4.60;4.20;;;;;;;;;;5009714;28;20797;-64
2022/04/23 04:49:39;;;;;;;4.70;4.30;;;;;;;;;;5006806;28;20204;-65
2022/04/23 04:52:07;;;;;;;4.67;4.27;;;;;;;;;;5007475;28;20232;-63
2022/04/23 04:54:34;;;;;;;4.93;4.53;;;;;;;;;;5009683;28;20249;-63
2022/04/23 04:57:03;;;;;;;4.67;4.27;;;;;;;;;;5009028;28;20196;-64
2022/04/23 04:59:35;;;;;;;5.00;4.60;;;;;;;;;;5004898;28;20211;-64
2022/04/23 05:02:05;;;;;;;4.43;4.13;;;;;;;;;;5009451;28;20207;-63
2022/04/23 05:04:33;;;;;;;5.20;4.70;;;;;;;;;;5013214;28;20188;-63
2022/04/23 05:07:00;;;;;;;4.83;4.43;;;;;;;;;;5008773;28;20200;-64
2022/04/23 05:09:28;;;;;;;5.33;4.93;;;;;;;;;;5005896;28;20388;-64
2022/04/23 05:11:55;;;;;;;5.03;4.63;;;;;;;;;;5006266;28;20265;-63
2022/04/23 05:14:22;;;;;;;5.70;5.20;;;;;;;;;;5009190;28;20208;-63
2022/04/23 05:16:49;;;;;;;5.03;4.63;;;;;;;;;;5007923;28;20204;-63
2022/04/23 05:19:16;;;;;;;5.60;5.10;;;;;;;;;;5004664;28;20208;-63
2022/04/23 05:21:44;;;;;;;5.00;4.60;;;;;;;;;;5008223;28;20832;-64
2022/04/23 05:24:11;;;;;;;5.03;4.63;;;;;;;;;;5005603;28;20313;-64
2022/04/23 05:26:38;;;;;;;5.13;4.73;;;;;;;;;;5007440;28;20588;-64
2022/04/23 05:29:05;;;;;;;6.13;5.53;;;;;;;;;;5009089;28;20200;-64
2022/04/23 05:31:38;;;;;;;5.57;4.77;;;;;;;;;;5006390;28;20548;-64
2022/04/23 05:34:11;;;;;;;5.40;4.93;;;;;;;;;;5006199;28;20238;-64
2022/04/23 05:36:42;;;;;;;5.57;5.10;;;;;;;;;;5005947;28;20223;-65
2022/04/23 05:39:12;;;;;;;6.13;5.53;;;;;;;;;;5005609;28;20196;-65
2022/04/23 05:41:39;;;;;;;5.50;5.00;;;;;;;;;;5008051;28;20638;-65
2022/04/23 05:44:06;;;;;;;5.40;4.97;;;;;;;;;;5008121;28;20219;-65
2022/04/23 05:46:33;;;;;;;5.73;5.23;;;;;;;;;;5007167;28;20215;-64
2022/04/23 05:49:00;;;;;;;5.87;5.37;;;;;;;;;;5005267;28;20254;-64
2022/04/23 05:51:27;;;;;;;5.70;5.20;;;;;;;;;;5004518;28;20243;-64
2022/04/23 05:53:55;;;;;;;6.27;5.70;;;;;;;;;;5006926;28;20191;-64
2022/04/23 05:56:25;;;;;;;5.43;5.03;;;;;;;;;;5008292;28;20203;-63
2022/04/23 05:58:52;;;;;;;5.50;5.00;;;;;;;;;;5007211;28;20196;-63
2022/04/23 06:01:19;;;;;;;7.27;6.67;;;;;;;;;;5002989;28;20230;-64
2022/04/23 06:03:46;;;;;;;5.97;5.47;;;;;;;;;;5006681;28;20226;-64
2022/04/23 06:06:14;;;;;;;6.80;6.20;;;;;;;;;;5007620;28;20621;-65
2022/04/23 06:08:42;;;;;;;6.43;5.80;;;;;;;;;;5007615;28;20204;-65
2022/04/23 06:11:09;;;;;;;6.50;5.90;;;;;;;;;;5006075;28;20254;-64
2022/04/23 06:13:36;;;;;;;6.50;5.90;;;;;;;;;;5004121;28;20200;-64
2022/04/23 06:16:04;;;;;;;5.93;5.43;;;;;;;;;;5007304;28;20199;-64
2022/04/23 06:18:31;;;;;;;6.27;5.77;;;;;;;;;;5007591;28;20359;-64
2022/04/23 06:20:58;;;;;;;6.37;5.87;;;;;;;;;;5006514;28;20253;-64
2022/04/23 06:23:25;;;;;;;6.67;6.07;;;;;;;;;;4996858;28;20220;-64
2022/04/23 06:25:52;;;;;;;6.40;5.87;;;;;;;;;;5007948;28;20207;-64
2022/04/23 06:28:19;;;;;;;6.23;5.73;;;;;;;;;;5006790;28;20207;-64
2022/04/23 06:30:46;;;;;;;6.10;5.60;;;;;;;;;;5007012;28;20278;-64
2022/04/23 06:33:16;;;;;;;6.50;5.90;;;;;;;;;;5003426;28;20203;-64
2022/04/23 06:35:44;;;;;;;6.27;5.67;;;;;;;;;;5004708;28;20200;-65
2022/04/23 06:38:14;;;;;;;6.00;5.50;;;;;;;;;;4998598;28;20215;-65
2022/04/23 06:40:43;;;;;;;7.10;6.50;;;;;;;;;;5006973;28;20215;-64
2022/04/23 06:43:10;;;;;;;6.50;5.90;;;;;;;;;;5003561;28;20266;-64
2022/04/23 06:45:40;;;;;;;5.77;5.30;;;;;;;;;;4998112;28;20591;-64
2022/04/23 06:48:12;;;;;;;6.50;5.90;;;;;;;;;;5004352;28;20207;-64
2022/04/23 06:50:48;;;;;;;6.67;6.07;;;;;;;;;;5002654;28;20207;-64
2022/04/23 06:53:15;;;;;;;6.70;6.20;;;;;;;;;;5008595;28;20297;-63
2022/04/23 06:55:42;;;;;;;6.40;5.90;;;;;;;;;;5005840;28;20660;-64
2022/04/23 06:58:11;;;;;;;6.87;6.30;;;;;;;;;;5004350;28;20243;-64
2022/04/23 07:00:40;;;;;;;6.80;6.10;;;;;;;;;;5003360;28;20344;-65
2022/04/23 07:03:07;;;;;;;6.57;5.97;;;;;;;;;;5007304;28;20243;-65
2022/04/23 07:05:34;;;;;;;6.50;5.90;;;;;;;;;;5005675;28;20872;-64
2022/04/23 07:08:02;;;;;;;6.63;5.97;;;;;;;;;;5004036;28;20274;-64
2022/04/23 07:10:30;;;;;;;7.27;6.67;;;;;;;;;;5004693;28;20203;-64
2022/04/23 07:12:58;;;;;;;7.97;6.97;;;;;;;;;;5002161;28;20203;-65
2022/04/23 07:15:27;;;;;;;7.83;7.13;;;;;;;;;;5002277;28;20211;-64
2022/04/23 07:17:55;;;;;;;7.40;6.80;;;;;;;;;;5004178;28;20508;-64
2022/04/23 07:20:22;;;;;;;7.37;6.77;;;;;;;;;;5004387;28;20203;-64
2022/04/23 07:25:36;;;;;;;7.83;7.17;;;;;;;;;;5001675;28;20200;-65
2022/04/23 07:28:03;;;;;;;8.40;7.70;;;;;;;;;;5003367;28;20192;-65
2022/04/23 07:30:31;;;;;;;8.57;7.77;;;;;;;;;;5005462;28;20256;-64
2022/04/23 07:33:02;;;;;;;8.00;7.20;;;;;;;;;;5004507;28;20243;-64
2022/04/23 07:38:26;;;;;;;9.43;8.53;;;;;;;;;;5004802;28;20196;-65
2022/04/23 07:40:56;;;;;;;9.53;8.63;;;;;;;;;;5005112;28;20629;-65
2022/04/23 07:43:25;;;;;;;10.00;9.10;;;;;;;;;;4999405;28;20226;-65
2022/04/23 07:45:53;;;;;;;8.93;8.10;;;;;;;;;;5003546;28;20196;-64
2022/04/23 07:48:20;;;;;;;9.90;9.03;;;;;;;;;;4997169;28;20208;-64
2022/04/23 07:50:47;;;;;;;9.40;8.60;;;;;;;;;;5004207;28;20733;-64
2022/04/23 07:53:14;;;;;;;10.20;9.30;;;;;;;;;;4991360;28;20297;-64
2022/04/23 07:55:41;;;;;;;9.23;8.30;;;;;;;;;;4995936;28;20200;-63
2022/04/23 07:58:11;;;;;;;10.10;9.10;;;;;;;;;;5003486;28;20207;-64
2022/04/23 08:00:45;;;;;;;9.93;9.00;;;;;;;;;;5002417;28;20282;-63
2022/04/23 08:03:29;;;;;;;9.57;8.67;;;;;;;;;;5001947;28;20641;-64
2022/04/23 08:06:00;;;;;;;10.47;9.47;;;;;;;;;;5002596;28;20196;-64
2022/04/23 08:08:27;;;;;;;9.40;8.50;;;;;;;;;;5003695;28;20531;-64
2022/04/23 08:11:00;;;;;;;10.33;8.87;;;;;;;;;;5002555;28;20279;-65
2022/04/23 08:13:30;;;;;;;10.80;9.70;;;;;;;;;;5010294;28;20254;-64
2022/04/23 08:16:03;;;;;;;10.73;9.63;;;;;;;;;;5006883;28;20200;-64
2022/04/23 08:18:33;;;;;;;10.80;9.80;;;;;;;;;;5008856;28;20214;-65
2022/04/23 08:21:01;;;;;;;11.37;10.37;;;;;;;;;;5006316;28;20433;-63
2022/04/23 08:23:33;;;;;;;10.67;9.67;;;;;;;;;;5002321;28;20223;-64
2022/04/23 08:26:08;;;;;;;11.50;10.50;;;;;;;;;;5009148;28;20210;-63
2022/04/23 08:31:33;;;;;;;10.80;9.77;;;;;;;;;;5005872;28;20188;-62
2022/04/23 08:34:05;;;;;;;10.73;9.50;;;;;;;;;;5007774;28;20238;-63
2022/04/23 08:36:36;;;;;;;10.87;9.73;;;;;;;;;;5007330;28;20223;-63
2022/04/23 08:39:07;;;;;;;11.00;9.53;;;;;;;;;;5009368;28;20210;-63
2022/04/23 08:41:36;;;;;;;10.77;9.77;;;;;;;;;;5008341;28;20657;-63
2022/04/23 08:44:10;;;;;;;12.33;10.37;;;;;;;;;;5010618;28;20661;-62
2022/04/23 08:46:41;;;;;;;11.00;9.97;;;;;;;;;;5008839;28;20852;-63
2022/04/23 08:49:14;;;;;;;10.80;9.80;;;;;;;;;;4999020;28;20231;-62
2022/04/23 08:51:45;;;;;;;10.20;9.30;;;;;;;;;;5007238;28;20689;-63
2022/04/23 08:54:16;;;;;;;13.07;10.87;;;;;;;;;;5008870;28;20203;-62
2022/04/23 08:56:49;;;;;;;11.80;10.20;;;;;;;;;;5008527;28;20297;-63
2022/04/23 08:59:20;;;;;;;11.03;9.93;;;;;;;;;;5004312;28;20207;-64
2022/04/23 09:01:57;;;;;;;11.27;10.27;;;;;;;;;;5009952;28;20208;-63
2022/04/23 09:04:29;;;;;;;11.17;10.17;;;;;;;;;;5011758;28;20212;-64
2022/04/23 09:07:02;;;;;;;13.57;11.00;;;;;;;;;;5014694;28;20227;-63
2022/04/23 09:09:33;;;;;;;16.00;10.50;;;;;;;;;;5004479;28;20204;-63
2022/04/23 09:12:19;;;;;;;12.60;11.40;;;;;;;;;;5009465;28;20308;-63
2022/04/23 09:14:49;;;;;;;12.37;11.10;;;;;;;;;;5007222;28;20991;-62
2022/04/23 09:25:48;;;;;;;12.97;11.67;;;;;;;;;;5005879;28;20234;-62
2022/04/23 09:28:19;;;;;;;12.20;11.00;;;;;;;;;;5006099;28;20207;-63
2022/04/23 09:30:51;;;;;;;12.40;11.27;;;;;;;;;;5008708;28;20188;-63
2022/04/23 09:33:28;;;;;;;11.93;10.80;;;;;;;;;;5003918;28;20536;-63
2022/04/23 09:36:01;;;;;;;12.47;11.37;;;;;;;;;;5003825;28;20207;-62
2022/04/23 09:38:37;;;;;;;11.33;10.27;;;;;;;;;;5004395;28;20188;-63
2022/04/23 09:41:18;;;;;;;11.30;10.37;;;;;;;;;;5007593;28;20196;-62
2022/04/23 09:44:12;;;;;;;13.60;11.70;;;;;;;;;;5004874;28;20238;-62
2022/04/23 09:46:48;;;;;;;11.67;10.67;;;;;;;;;;5005893;28;20314;-62
2022/04/23 09:49:32;;;;;;;12.13;11.03;;;;;;;;;;5027133;28;20223;-62
2022/04/23 09:52:24;;;;;;;12.47;11.37;;;;;;;;;;5006755;28;20274;-62
2022/04/23 09:55:15;;;;;;;13.03;11.80;;;;;;;;;;5007846;28;20216;-63
2022/04/23 09:57:46;;;;;;;13.40;12.20;;;;;;;;;;5008113;28;20599;-64
2022/04/23 10:00:20;;;;;;;12.67;11.50;;;;;;;;;;5004919;28;20233;-62
2022/04/23 10:02:56;;;;;;;13.10;12.00;;;;;;;;;;5007600;28;20250;-62
2022/04/23 10:05:30;;;;;;;13.03;11.83;;;;;;;;;;5015819;28;20591;-62
2022/04/23 10:07:57;;;;;;;13.50;12.30;;;;;;;;;;5004828;28;20536;-62
2022/04/23 10:10:27;;;;;;;13.23;12.00;;;;;;;;;;5006553;28;20195;-62
2022/04/23 10:13:02;;;;;;;13.90;12.60;;;;;;;;;;5004274;28;20211;-62
2022/04/23 10:15:39;;;;;;;13.43;12.30;;;;;;;;;;4998200;28;20180;-61
2022/04/23 10:18:10;;;;;;;12.40;11.40;;;;;;;;;;5007131;28;20211;-61
2022/04/23 10:20:40;;;;;;;14.23;13.00;;;;;;;;;;5005795;28;20254;-61
2022/04/23 10:23:20;;;;;;;14.07;12.87;;;;;;;;;;5007375;28;20214;-61
2022/04/23 10:25:56;;;;;;;12.77;11.67;;;;;;;;;;5012801;28;20579;-61
2022/04/23 10:28:23;;;;;;;14.03;12.83;;;;;;;;;;5016854;28;20195;-60
2022/04/23 10:31:11;;;;;;;13.33;12.07;;;;;;;;;;5007946;28;20555;-60
2022/04/23 10:33:42;;;;;;;12.33;11.33;;;;;;;;;;4996977;28;20187;-60
2022/04/23 10:36:10;;;;;;;13.33;12.13;;;;;;;;;;5003848;28;20204;-63
2022/04/23 10:38:53;;;;;;;13.13;11.93;;;;;;;;;;5005618;28;20203;-63
2022/04/23 10:41:21;;;;;;;12.90;11.70;;;;;;;;;;5002521;28;20246;-60
2022/04/23 10:44:04;;;;;;;13.70;12.47;;;;;;;;;;5006855;28;20258;-60
2022/04/23 10:46:37;;;;;;;12.80;11.70;;;;;;;;;;5007189;28;20192;-60
2022/04/23 10:49:14;;;;;;;13.37;12.20;;;;;;;;;;5002840;28;20270;-61
2022/04/23 10:51:48;;;;;;;12.63;11.50;;;;;;;;;;5007251;28;20285;-63
2022/04/23 10:54:19;;;;;;;12.40;11.40;;;;;;;;;;5006813;28;20191;-63
2022/04/23 10:56:53;;;;;;;13.33;12.10;;;;;;;;;;5006353;28;20220;-61
2022/04/23 10:59:39;;;;;;;12.43;11.33;;;;;;;;;;5002390;28;20202;-60
2022/04/23 11:02:20;;;;;;;12.27;11.17;;;;;;;;;;5038575;28;20207;-62
2022/04/23 11:13:29;;;;;;;12.70;11.70;;;;;;;;;;5001349;28;20203;-61
2022/04/23 11:16:08;;;;;;;12.17;11.03;;;;;;;;;;5002978;28;20630;-60
2022/04/23 11:18:35;;;;;;;12.63;11.53;;;;;;;;;;5005124;28;20259;-60
2022/04/23 11:21:07;;;;;;;12.97;11.80;;;;;;;;;;5005764;28;20923;-62
2022/04/23 11:23:35;;;;;;;66.10;23.43;;;;;;;;;;5001485;28;20204;-63
2022/04/23 11:26:02;;;;;;;135.30;36.53;;;;;;;;;;5007492;28;20212;-62
2022/04/23 11:28:30;;;;;;;110.30;32.73;;;;;;;;;;5002020;28;20598;-61
2022/04/23 11:30:57;;;;;;;72.37;27.13;;;;;;;;;;5005444;28;20205;-61
2022/04/23 11:33:24;;;;;;;63.20;24.33;;;;;;;;;;5003149;28;20209;-62
2022/04/23 11:35:56;;;;;;;42.47;18.83;;;;;;;;;;5003394;28;20273;-62
2022/04/23 11:38:25;;;;;;;40.63;17.63;;;;;;;;;;4998904;28;20257;-61
2022/04/23 11:40:52;;;;;;;27.20;15.87;;;;;;;;;;5006149;28;20192;-60
2022/04/23 11:43:32;;;;;;;28.77;15.17;;;;;;;;;;5003406;28;20208;-60
2022/04/23 11:46:09;;;;;;;23.43;14.17;;;;;;;;;;5006656;28;20395;-60
2022/04/23 11:48:40;;;;;;;21.13;13.40;;;;;;;;;;5005841;28;20192;-60
2022/04/23 11:51:12;;;;;;;20.30;13.20;;;;;;;;;;5009498;28;20200;-60
2022/04/23 11:53:52;;;;;;;23.07;13.90;;;;;;;;;;5042156;28;20207;-61
2022/04/23 11:56:28;;;;;;;20.53;13.17;;;;;;;;;;5007536;28;20198;-59
2022/04/23 11:59:06;;;;;;;16.03;12.70;;;;;;;;;;5009874;28;20180;-59
2022/04/23 12:01:34;;;;;;;13.03;11.40;;;;;;;;;;5003481;28;20216;-59
2022/04/23 12:04:04;;;;;;;15.93;11.40;;;;;;;;;;5009326;28;20215;-59
2022/04/23 12:06:44;;;;;;;13.60;11.00;;;;;;;;;;5008486;28;20580;-59
2022/04/23 12:09:18;;;;;;;14.13;11.93;;;;;;;;;;5005536;28;20645;-59
2022/04/23 12:11:58;;;;;;;13.10;11.33;;;;;;;;;;5003991;28;20220;-59
2022/04/23 12:14:27;;;;;;;12.93;11.27;;;;;;;;;;5008867;28;20195;-59
2022/04/23 12:17:07;;;;;;;13.13;11.77;;;;;;;;;;5009524;28;20199;-58
2022/04/23 12:20:10;;;;;;;12.77;10.97;;;;;;;;;;5008604;28;20195;-59
2022/04/23 12:22:41;;;;;;;12.73;11.37;;;;;;;;;;5008911;28;20697;-61
2022/04/23 12:25:18;;;;;;;11.73;10.63;;;;;;;;;;5004380;28;20238;-60
2022/04/23 12:27:57;;;;;;;12.20;10.53;;;;;;;;;;5009153;28;20195;-61
2022/04/23 12:42:02;;;;;;;12.67;10.67;;;;;;;;;;5008267;28;20188;-59
2022/04/23 12:44:42;;;;;;;10.80;9.70;;;;;;;;;;5009517;28;20231;-59
2022/04/23 12:47:30;;;;;;;10.13;9.23;;;;;;;;;;5005755;28;20191;-60
2022/04/23 12:50:03;;;;;;;10.97;9.80;;;;;;;;;;4997255;28;20196;-60
2022/04/23 12:52:43;;;;;;;11.30;10.13;;;;;;;;;;5008294;28;20223;-60
2022/04/23 12:55:24;;;;;;;10.03;9.13;;;;;;;;;;5005210;28;20343;-60
2022/04/23 12:58:01;;;;;;;12.13;9.77;;;;;;;;;;5007733;28;20226;-61
2022/04/23 13:00:37;;;;;;;10.70;9.70;;;;;;;;;;5005871;28;20219;-61
2022/04/23 13:04:01;;;;;;;11.63;10.53;;;;;;;;;;5006020;28;20200;-61
2022/04/23 13:08:54;;;;;;;11.00;9.90;;;;;;;;;;5007163;28;20645;-59
2022/04/23 13:11:30;;;;;;;10.17;9.27;;;;;;;;;;4997284;28;20282;-59
2022/04/23 13:14:03;;;;;;;10.07;9.17;;;;;;;;;;5007454;28;20207;-59
2022/04/23 13:16:45;;;;;;;9.43;8.53;;;;;;;;;;5007005;28;20286;-58
2022/04/23 13:19:20;;;;;;;19.73;8.77;;;;;;;;;;5022268;28;20215;-59
2022/04/23 13:21:48;;;;;;;8.63;7.83;;;;;;;;;;5005815;28;20203;-59
2022/04/23 13:24:17;;;;;;;8.83;8.03;;;;;;;;;;5004343;28;20215;-59
2022/04/23 13:26:46;;;;;;;8.70;7.90;;;;;;;;;;5006199;28;20199;-61
2022/04/23 13:29:14;;;;;;;8.93;8.07;;;;;;;;;;5004901;28;20834;-60
2022/04/23 13:31:43;;;;;;;9.33;7.90;;;;;;;;;;5005244;28;20668;-60
2022/04/23 13:34:10;;;;;;;8.40;7.60;;;;;;;;;;5008460;28;20229;-59
2022/04/23 13:36:40;;;;;;;9.07;7.73;;;;;;;;;;5005374;28;20214;-59
2022/04/23 13:39:09;;;;;;;8.30;7.60;;;;;;;;;;5008293;28;20195;-60
2022/04/23 13:41:37;;;;;;;9.03;7.90;;;;;;;;;;5006622;28;20196;-59
2022/04/23 13:44:07;;;;;;;8.33;7.47;;;;;;;;;;4997214;28;20199;-59
2022/04/23 13:46:38;;;;;;;8.23;7.43;;;;;;;;;;5000860;28;20212;-61
2022/04/23 13:49:10;;;;;;;7.13;6.43;;;;;;;;;;5003589;28;20216;-62
2022/04/23 13:51:38;;;;;;;7.67;6.97;;;;;;;;;;5007486;28;20232;-59
2022/04/23 13:54:09;;;;;;;8.50;6.93;;;;;;;;;;5006210;28;20203;-59
2022/04/23 13:56:41;;;;;;;7.07;6.43;;;;;;;;;;5032030;28;20315;-60
2022/04/23 13:59:12;;;;;;;6.67;6.17;;;;;;;;;;5006666;28;20207;-60
2022/04/23 14:10:04;;;;;;;7.17;6.57;;;;;;;;;;5004654;28;20195;-59
2022/04/23 14:10:13;;;;;;;6.60;6.00;;;;;;;;;;5003635;28;20195;-61
2022/04/23 14:12:46;;;;;;;6.30;5.70;;;;;;;;;;5010764;28;20203;-61
2022/04/23 14:15:17;;;;;;;9.67;6.50;;;;;;;;;;5005704;28;20198;-60
2022/04/23 14:17:49;;;;;;;7.00;6.30;;;;;;;;;;5007044;28;20287;-60
2022/04/23 14:20:21;;;;;;;8.37;6.60;;;;;;;;;;5006922;28;20242;-60
2022/04/23 14:22:50;;;;;;;7.30;6.70;;;;;;;;;;4994222;28;20261;-60
2022/04/23 14:25:20;;;;;;;7.50;6.60;;;;;;;;;;4993986;28;20675;-60
2022/04/23 14:27:54;;;;;;;7.23;6.53;;;;;;;;;;5002717;28;20188;-60
2022/04/23 14:30:25;;;;;;;7.30;6.60;;;;;;;;;;5001801;28;20600;-60
2022/04/23 14:33:10;;;;;;;7.13;6.43;;;;;;;;;;5003432;28;20206;-60
2022/04/23 14:35:42;;;;;;;7.77;6.60;;;;;;;;;;5002494;28;20208;-61
2022/04/23 14:38:11;;;;;;;7.23;6.47;;;;;;;;;;5005900;28;20196;-61
2022/04/23 14:40:41;;;;;;;7.13;6.43;;;;;;;;;;5004808;28;20200;-61
2022/04/23 14:43:13;;;;;;;7.47;6.77;;;;;;;;;;5002471;28;20652;-60
2022/04/23 14:45:42;;;;;;;7.43;6.27;;;;;;;;;;5034406;28;20211;-60
2022/04/23 14:48:13;;;;;;;7.50;6.70;;;;;;;;;;5002125;28;20223;-60
2022/04/23 14:53:40;;;;;;;7.87;7.07;;;;;;;;;;4997969;28;20183;-61
2022/04/23 14:56:14;;;;;;;7.37;6.63;;;;;;;;;;5004947;28;20214;-61
2022/04/23 14:58:46;;;;;;;7.87;6.80;;;;;;;;;;5005110;28;20656;-61
2022/04/23 15:01:15;;;;;;;7.93;6.70;;;;;;;;;;4999432;28;20436;-62
2022/04/23 15:03:48;;;;;;;7.20;6.50;;;;;;;;;;5005912;28;20232;-62
2022/04/23 15:06:18;;;;;;;8.20;6.33;;;;;;;;;;5003465;28;20736;-61
2022/04/23 15:08:45;;;;;;;7.47;6.70;;;;;;;;;;5005063;28;20196;-61
2022/04/23 15:11:12;;;;;;;7.20;6.50;;;;;;;;;;5001868;28;20743;-62
2022/04/23 15:13:40;;;;;;;7.00;6.40;;;;;;;;;;5008678;28;20223;-62
2022/04/23 15:16:15;;;;;;;8.67;7.90;;;;;;;;;;5002141;28;20203;-63
2022/04/23 15:18:43;;;;;;;8.30;7.50;;;;;;;;;;5005303;28;20285;-63
2022/04/23 15:21:10;;;;;;;11.33;8.57;;;;;;;;;;5005760;28;20206;-61
2022/04/23 15:23:37;;;;;;;9.20;8.30;;;;;;;;;;5009504;28;20254;-61
2022/04/23 15:26:08;;;;;;;7.50;6.90;;;;;;;;;;5010278;28;20546;-62
2022/04/23 15:28:40;;;;;;;7.70;7.00;;;;;;;;;;5006969;28;20242;-60
2022/04/23 15:31:11;;;;;;;9.63;7.47;;;;;;;;;;5007409;28;20231;-61
2022/04/23 15:33:40;;;;;;;8.20;7.50;;;;;;;;;;5011066;28;20649;-61
2022/04/23 15:36:13;;;;;;;8.90;8.10;;;;;;;;;;5007787;28;20215;-60
2022/04/23 15:38:43;;;;;;;8.40;7.47;;;;;;;;;;5009133;28;20216;-61
2022/04/23 15:41:17;;;;;;;7.67;6.97;;;;;;;;;;5008487;28;20203;-60
2022/04/23 15:43:44;;;;;;;7.73;7.03;;;;;;;;;;5010411;28;20199;-60
2022/04/23 15:46:16;;;;;;;7.67;6.73;;;;;;;;;;5004547;28;20269;-61